sensor_id;sensor_type;location;lat;lon;timestamp;temperature;humidity
4647;DHT22;2336;47.822;7.564;2023-08-12T00:00:55;21.50;99.90
4647;DHT22;2336;47.822;7.564;2023-08-12T00:03:22;21.50;99.90
4647;DHT22;2336;47.822;7.564;2023-08-12T00:05:48;21.50;99.90
4647;DHT22;2336;47.822;7.564;2023-08-12T00:08:15;21.40;99.90
4647;DHT22;2336;47.822;7.564;2023-08-12T00:10:42;21.40;99.90
4647;DHT22;2336;47.822;7.564;2023-08-12T00:13:09;21.50;99.90
4647;DHT22;2336;47.822;7.564;2023-08-12T00:15:35;21.50;99.90
4647;DHT22;2336;47.822;7.564;2023-08-12T00:18:04;21.60;99.90
4647;DHT22;2336;47.822;7.564;2023-08-12T00:20:32;21.60;99.90
4647;DHT22;2336;47.822;7.564;2023-08-12T00:22:58;21.60;99.90
4647;DHT22;2336;47.822;7.564;2023-08-12T00:25:25;21.60;99.90
4647;DHT22;2336;47.822;7.564;2023-08-12T00:27:52;21.60;99.90
4647;DHT22;2336;47.822;7.564;2023-08-12T00:30:19;21.60;99.90
4647;DHT22;2336;47.822;7.564;2023-08-12T00:32:45;21.60;99.90
4647;DHT22;2336;47.822;7.564;2023-08-12T00:35:13;21.60;99.90
4647;DHT22;2336;47.822;7.564;2023-08-12T00:37:40;21.60;99.90
4647;DHT22;2336;47.822;7.564;2023-08-12T00:40:08;21.60;99.90
4647;DHT22;2336;47.822;7.564;2023-08-12T00:42:35;21.60;99.90
4647;DHT22;2336;47.822;7.564;2023-08-12T00:45:02;21.60;99.90
4647;DHT22;2336;47.822;7.564;2023-08-12T00:47:30;21.60;99.90
4647;DHT22;2336;47.822;7.564;2023-08-12T00:49:57;21.60;99.90
4647;DHT22;2336;47.822;7.564;2023-08-12T00:52:26;21.60;99.90
4647;DHT22;2336;47.822;7.564;2023-08-12T00:54:53;21.60;99.90
4647;DHT22;2336;47.822;7.564;2023-08-12T00:57:20;21.60;99.90
4647;DHT22;2336;47.822;7.564;2023-08-12T00:59:49;21.60;99.90
4647;DHT22;2336;47.822;7.564;2023-08-12T01:02:16;21.60;99.90
4647;DHT22;2336;47.822;7.564;2023-08-12T01:04:42;21.60;99.90
4647;DHT22;2336;47.822;7.564;2023-08-12T01:07:09;21.60;99.90
4647;DHT22;2336;47.822;7.564;2023-08-12T01:09:38;21.60;99.90
4647;DHT22;2336;47.822;7.564;2023-08-12T01:12:10;21.60;99.90
4647;DHT22;2336;47.822;7.564;2023-08-12T01:14:45;21.60;99.90
4647;DHT22;2336;47.822;7.564;2023-08-12T01:17:14;21.60;99.90
4647;DHT22;2336;47.822;7.564;2023-08-12T01:19:43;21.60;99.90
4647;DHT22;2336;47.822;7.564;2023-08-12T01:22:11;21.60;99.90
4647;DHT22;2336;47.822;7.564;2023-08-12T01:24:41;21.50;99.90
4647;DHT22;2336;47.822;7.564;2023-08-12T01:27:09;21.50;99.90
4647;DHT22;2336;47.822;7.564;2023-08-12T01:29:38;21.50;99.90
4647;DHT22;2336;47.822;7.564;2023-08-12T01:32:11;21.50;99.90
4647;DHT22;2336;47.822;7.564;2023-08-12T01:34:42;21.40;99.90
4647;DHT22;2336;47.822;7.564;2023-08-12T01:37:12;21.40;99.90
4647;DHT22;2336;47.822;7.564;2023-08-12T01:39:43;21.40;99.90
4647;DHT22;2336;47.822;7.564;2023-08-12T01:42:12;21.30;99.90
4647;DHT22;2336;47.822;7.564;2023-08-12T01:44:38;21.30;99.90
4647;DHT22;2336;47.822;7.564;2023-08-12T01:47:07;21.30;99.90
4647;DHT22;2336;47.822;7.564;2023-08-12T01:49:34;21.20;99.90
4647;DHT22;2336;47.822;7.564;2023-08-12T01:52:01;21.20;99.90
4647;DHT22;2336;47.822;7.564;2023-08-12T01:54:28;21.30;99.90
4647;DHT22;2336;47.822;7.564;2023-08-12T01:57:00;21.20;99.90
4647;DHT22;2336;47.822;7.564;2023-08-12T01:59:27;21.20;99.90
4647;DHT22;2336;47.822;7.564;2023-08-12T02:01:53;21.20;99.90
4647;DHT22;2336;47.822;7.564;2023-08-12T02:04:20;21.20;99.90
4647;DHT22;2336;47.822;7.564;2023-08-12T02:06:47;21.20;99.90
4647;DHT22;2336;47.822;7.564;2023-08-12T02:09:15;21.10;99.90
4647;DHT22;2336;47.822;7.564;2023-08-12T02:11:41;21.10;99.90
4647;DHT22;2336;47.822;7.564;2023-08-12T02:14:09;21.20;99.90
4647;DHT22;2336;47.822;7.564;2023-08-12T02:16:36;21.10;99.90
4647;DHT22;2336;47.822;7.564;2023-08-12T02:19:03;21.10;99.90
4647;DHT22;2336;47.822;7.564;2023-08-12T02:21:30;21.10;99.90
4647;DHT22;2336;47.822;7.564;2023-08-12T02:23:56;21.10;99.90
4647;DHT22;2336;47.822;7.564;2023-08-12T02:26:23;21.10;99.90
4647;DHT22;2336;47.822;7.564;2023-08-12T02:28:50;21.10;99.90
4647;DHT22;2336;47.822;7.564;2023-08-12T02:31:18;21.10;99.90
4647;DHT22;2336;47.822;7.564;2023-08-12T02:33:45;21.10;99.90
4647;DHT22;2336;47.822;7.564;2023-08-12T02:36:11;21.00;99.90
4647;DHT22;2336;47.822;7.564;2023-08-12T02:38:38;21.00;99.90
4647;DHT22;2336;47.822;7.564;2023-08-12T02:41:05;21.00;99.90
4647;DHT22;2336;47.822;7.564;2023-08-12T02:43:31;21.00;99.90
4647;DHT22;2336;47.822;7.564;2023-08-12T02:45:58;21.00;99.90
4647;DHT22;2336;47.822;7.564;2023-08-12T02:48:26;20.90;99.90
4647;DHT22;2336;47.822;7.564;2023-08-12T02:50:53;21.00;99.90
4647;DHT22;2336;47.822;7.564;2023-08-12T02:53:19;21.00;99.90
4647;DHT22;2336;47.822;7.564;2023-08-12T02:55:46;21.00;99.90
4647;DHT22;2336;47.822;7.564;2023-08-12T02:58:13;21.00;99.90
4647;DHT22;2336;47.822;7.564;2023-08-12T03:00:41;21.00;99.90
4647;DHT22;2336;47.822;7.564;2023-08-12T03:03:09;20.90;99.90
4647;DHT22;2336;47.822;7.564;2023-08-12T03:05:37;20.90;99.90
4647;DHT22;2336;47.822;7.564;2023-08-12T03:08:04;20.90;99.90
4647;DHT22;2336;47.822;7.564;2023-08-12T03:10:33;20.80;99.90
4647;DHT22;2336;47.822;7.564;2023-08-12T03:13:00;20.80;99.90
4647;DHT22;2336;47.822;7.564;2023-08-12T03:15:26;20.90;99.90
4647;DHT22;2336;47.822;7.564;2023-08-12T03:17:53;20.80;99.90
4647;DHT22;2336;47.822;7.564;2023-08-12T03:20:19;20.80;99.90
4647;DHT22;2336;47.822;7.564;2023-08-12T03:22:47;20.80;99.90
4647;DHT22;2336;47.822;7.564;2023-08-12T03:25:14;20.80;99.90
4647;DHT22;2336;47.822;7.564;2023-08-12T03:27:41;20.70;99.90
4647;DHT22;2336;47.822;7.564;2023-08-12T03:30:09;20.70;99.90
4647;DHT22;2336;47.822;7.564;2023-08-12T03:32:36;20.70;99.90
4647;DHT22;2336;47.822;7.564;2023-08-12T03:35:03;20.80;99.90
4647;DHT22;2336;47.822;7.564;2023-08-12T03:37:30;20.80;99.90
4647;DHT22;2336;47.822;7.564;2023-08-12T03:39:58;20.80;99.90
4647;DHT22;2336;47.822;7.564;2023-08-12T03:42:25;20.80;99.90
4647;DHT22;2336;47.822;7.564;2023-08-12T03:44:52;20.70;99.90
4647;DHT22;2336;47.822;7.564;2023-08-12T03:47:18;20.70;99.90
4647;DHT22;2336;47.822;7.564;2023-08-12T03:49:49;20.70;99.90
4647;DHT22;2336;47.822;7.564;2023-08-12T03:52:15;20.70;99.90
4647;DHT22;2336;47.822;7.564;2023-08-12T03:54:42;20.70;99.90
4647;DHT22;2336;47.822;7.564;2023-08-12T03:57:10;20.70;99.90
4647;DHT22;2336;47.822;7.564;2023-08-12T03:59:37;20.60;99.90
4647;DHT22;2336;47.822;7.564;2023-08-12T04:02:04;20.60;99.90
4647;DHT22;2336;47.822;7.564;2023-08-12T04:04:31;20.60;99.90
4647;DHT22;2336;47.822;7.564;2023-08-12T04:06:58;20.60;99.90
4647;DHT22;2336;47.822;7.564;2023-08-12T04:09:24;20.60;99.90
4647;DHT22;2336;47.822;7.564;2023-08-12T04:11:51;20.70;99.90
4647;DHT22;2336;47.822;7.564;2023-08-12T04:14:19;20.80;99.90
4647;DHT22;2336;47.822;7.564;2023-08-12T04:16:46;20.80;99.90
4647;DHT22;2336;47.822;7.564;2023-08-12T04:19:12;20.80;99.90
4647;DHT22;2336;47.822;7.564;2023-08-12T04:21:39;20.70;99.90
4647;DHT22;2336;47.822;7.564;2023-08-12T04:24:07;20.70;99.90
4647;DHT22;2336;47.822;7.564;2023-08-12T04:26:34;20.70;99.90
4647;DHT22;2336;47.822;7.564;2023-08-12T04:29:01;20.70;99.90
4647;DHT22;2336;47.822;7.564;2023-08-12T04:31:29;20.60;99.90
4647;DHT22;2336;47.822;7.564;2023-08-12T04:33:55;20.60;99.90
4647;DHT22;2336;47.822;7.564;2023-08-12T04:36:22;20.60;99.90
4647;DHT22;2336;47.822;7.564;2023-08-12T04:38:49;20.50;99.90
4647;DHT22;2336;47.822;7.564;2023-08-12T04:41:16;20.50;99.90
4647;DHT22;2336;47.822;7.564;2023-08-12T04:43:44;20.50;99.90
4647;DHT22;2336;47.822;7.564;2023-08-12T04:46:10;20.50;99.90
4647;DHT22;2336;47.822;7.564;2023-08-12T04:48:38;20.50;99.90
4647;DHT22;2336;47.822;7.564;2023-08-12T04:51:05;20.50;99.90
4647;DHT22;2336;47.822;7.564;2023-08-12T04:53:32;20.50;99.90
4647;DHT22;2336;47.822;7.564;2023-08-12T04:55:59;20.50;99.90
4647;DHT22;2336;47.822;7.564;2023-08-12T04:58:26;20.50;99.90
4647;DHT22;2336;47.822;7.564;2023-08-12T05:00:53;20.50;99.90
4647;DHT22;2336;47.822;7.564;2023-08-12T05:03:19;20.50;99.90
4647;DHT22;2336;47.822;7.564;2023-08-12T05:05:50;20.60;99.90
4647;DHT22;2336;47.822;7.564;2023-08-12T05:08:17;20.70;99.90
4647;DHT22;2336;47.822;7.564;2023-08-12T05:10:46;20.70;99.90
4647;DHT22;2336;47.822;7.564;2023-08-12T05:13:13;20.80;99.90
4647;DHT22;2336;47.822;7.564;2023-08-12T05:15:40;20.80;99.90
4647;DHT22;2336;47.822;7.564;2023-08-12T05:18:07;20.90;99.90
4647;DHT22;2336;47.822;7.564;2023-08-12T05:20:33;20.90;99.90
4647;DHT22;2336;47.822;7.564;2023-08-12T05:23:01;21.00;99.90
4647;DHT22;2336;47.822;7.564;2023-08-12T05:25:28;21.00;99.90
4647;DHT22;2336;47.822;7.564;2023-08-12T05:27:55;21.00;99.90
4647;DHT22;2336;47.822;7.564;2023-08-12T05:30:22;21.10;99.90
4647;DHT22;2336;47.822;7.564;2023-08-12T05:32:48;21.10;99.90
4647;DHT22;2336;47.822;7.564;2023-08-12T05:35:15;21.10;99.90
4647;DHT22;2336;47.822;7.564;2023-08-12T05:37:42;21.20;99.90
4647;DHT22;2336;47.822;7.564;2023-08-12T05:40:11;21.20;99.90
4647;DHT22;2336;47.822;7.564;2023-08-12T05:42:37;21.10;99.90
4647;DHT22;2336;47.822;7.564;2023-08-12T05:45:05;21.10;99.90
4647;DHT22;2336;47.822;7.564;2023-08-12T05:47:32;21.20;99.90
4647;DHT22;2336;47.822;7.564;2023-08-12T05:49:59;21.20;99.90
4647;DHT22;2336;47.822;7.564;2023-08-12T05:52:26;21.20;99.90
4647;DHT22;2336;47.822;7.564;2023-08-12T05:54:52;21.20;99.90
4647;DHT22;2336;47.822;7.564;2023-08-12T05:57:20;21.20;99.90
4647;DHT22;2336;47.822;7.564;2023-08-12T05:59:47;21.30;99.90
4647;DHT22;2336;47.822;7.564;2023-08-12T06:02:14;21.30;99.90
4647;DHT22;2336;47.822;7.564;2023-08-12T06:04:41;21.40;99.90
4647;DHT22;2336;47.822;7.564;2023-08-12T06:07:08;21.40;99.90
4647;DHT22;2336;47.822;7.564;2023-08-12T06:09:34;21.40;99.90
4647;DHT22;2336;47.822;7.564;2023-08-12T06:12:01;21.40;99.90
4647;DHT22;2336;47.822;7.564;2023-08-12T06:14:29;21.30;99.90
4647;DHT22;2336;47.822;7.564;2023-08-12T06:16:56;21.30;99.90
4647;DHT22;2336;47.822;7.564;2023-08-12T06:19:22;21.30;99.90
4647;DHT22;2336;47.822;7.564;2023-08-12T06:21:49;21.30;99.90
4647;DHT22;2336;47.822;7.564;2023-08-12T06:24:16;21.30;99.90
4647;DHT22;2336;47.822;7.564;2023-08-12T06:26:42;21.40;99.90
4647;DHT22;2336;47.822;7.564;2023-08-12T06:29:09;21.40;99.90
4647;DHT22;2336;47.822;7.564;2023-08-12T06:31:37;21.40;99.90
4647;DHT22;2336;47.822;7.564;2023-08-12T06:34:04;21.40;99.90
4647;DHT22;2336;47.822;7.564;2023-08-12T06:36:31;21.50;99.90
4647;DHT22;2336;47.822;7.564;2023-08-12T06:38:57;21.50;99.90
4647;DHT22;2336;47.822;7.564;2023-08-12T06:41:24;21.50;99.90
4647;DHT22;2336;47.822;7.564;2023-08-12T06:43:51;21.60;99.90
4647;DHT22;2336;47.822;7.564;2023-08-12T06:46:18;21.70;99.90
4647;DHT22;2336;47.822;7.564;2023-08-12T06:48:46;21.70;99.90
4647;DHT22;2336;47.822;7.564;2023-08-12T06:51:12;21.80;99.90
4647;DHT22;2336;47.822;7.564;2023-08-12T06:53:39;21.90;99.90
4647;DHT22;2336;47.822;7.564;2023-08-12T06:56:06;21.90;99.90
4647;DHT22;2336;47.822;7.564;2023-08-12T06:58:33;22.00;99.90
4647;DHT22;2336;47.822;7.564;2023-08-12T07:00:59;22.20;99.90
4647;DHT22;2336;47.822;7.564;2023-08-12T07:03:26;22.40;99.90
4647;DHT22;2336;47.822;7.564;2023-08-12T07:05:54;22.60;99.90
4647;DHT22;2336;47.822;7.564;2023-08-12T07:08:21;22.80;99.90
4647;DHT22;2336;47.822;7.564;2023-08-12T07:10:48;23.00;99.90
4647;DHT22;2336;47.822;7.564;2023-08-12T07:13:14;23.20;99.90
4647;DHT22;2336;47.822;7.564;2023-08-12T07:15:41;23.30;99.90
4647;DHT22;2336;47.822;7.564;2023-08-12T07:18:08;23.30;99.90
4647;DHT22;2336;47.822;7.564;2023-08-12T07:20:34;23.30;99.90
4647;DHT22;2336;47.822;7.564;2023-08-12T07:23:03;23.30;99.90
4647;DHT22;2336;47.822;7.564;2023-08-12T07:25:30;23.30;99.90
4647;DHT22;2336;47.822;7.564;2023-08-12T07:27:57;23.20;99.90
4647;DHT22;2336;47.822;7.564;2023-08-12T07:30:24;23.10;99.90
4647;DHT22;2336;47.822;7.564;2023-08-12T07:32:50;23.00;99.90
4647;DHT22;2336;47.822;7.564;2023-08-12T07:35:17;22.90;99.90
4647;DHT22;2336;47.822;7.564;2023-08-12T07:37:44;22.90;99.90
4647;DHT22;2336;47.822;7.564;2023-08-12T07:40:12;22.80;99.90
4647;DHT22;2336;47.822;7.564;2023-08-12T07:42:39;22.80;99.90
4647;DHT22;2336;47.822;7.564;2023-08-12T07:45:07;22.90;99.90
4647;DHT22;2336;47.822;7.564;2023-08-12T07:47:34;22.80;99.90
4647;DHT22;2336;47.822;7.564;2023-08-12T07:50:01;22.70;99.90
4647;DHT22;2336;47.822;7.564;2023-08-12T07:52:28;22.70;99.90
4647;DHT22;2336;47.822;7.564;2023-08-12T07:54:54;22.50;99.90
4647;DHT22;2336;47.822;7.564;2023-08-12T07:57:22;22.40;99.90
4647;DHT22;2336;47.822;7.564;2023-08-12T07:59:50;22.40;99.90
4647;DHT22;2336;47.822;7.564;2023-08-12T08:02:16;22.40;99.90
4647;DHT22;2336;47.822;7.564;2023-08-12T08:04:43;22.30;99.90
4647;DHT22;2336;47.822;7.564;2023-08-12T08:07:14;22.20;99.90
4647;DHT22;2336;47.822;7.564;2023-08-12T08:09:41;22.20;99.90
4647;DHT22;2336;47.822;7.564;2023-08-12T08:12:08;22.10;99.90
4647;DHT22;2336;47.822;7.564;2023-08-12T08:14:36;22.00;99.90
4647;DHT22;2336;47.822;7.564;2023-08-12T08:17:03;21.90;99.90
4647;DHT22;2336;47.822;7.564;2023-08-12T08:19:30;21.80;99.90
4647;DHT22;2336;47.822;7.564;2023-08-12T08:21:57;21.80;99.90
4647;DHT22;2336;47.822;7.564;2023-08-12T08:24:23;21.90;99.90
4647;DHT22;2336;47.822;7.564;2023-08-12T08:26:50;21.90;99.90
4647;DHT22;2336;47.822;7.564;2023-08-12T08:29:17;22.10;99.90
4647;DHT22;2336;47.822;7.564;2023-08-12T08:31:45;22.20;99.90
4647;DHT22;2336;47.822;7.564;2023-08-12T08:34:12;22.30;99.90
4647;DHT22;2336;47.822;7.564;2023-08-12T08:36:38;22.50;99.90
4647;DHT22;2336;47.822;7.564;2023-08-12T08:39:05;22.70;99.90
4647;DHT22;2336;47.822;7.564;2023-08-12T08:41:33;22.90;99.90
4647;DHT22;2336;47.822;7.564;2023-08-12T08:44:07;23.00;99.90
4647;DHT22;2336;47.822;7.564;2023-08-12T08:46:34;23.10;99.90
4647;DHT22;2336;47.822;7.564;2023-08-12T08:49:02;23.20;99.90
4647;DHT22;2336;47.822;7.564;2023-08-12T08:51:30;23.20;99.90
4647;DHT22;2336;47.822;7.564;2023-08-12T08:53:58;22.90;99.90
4647;DHT22;2336;47.822;7.564;2023-08-12T08:56:24;22.90;99.90
4647;DHT22;2336;47.822;7.564;2023-08-12T08:58:52;23.00;99.90
4647;DHT22;2336;47.822;7.564;2023-08-12T09:01:20;23.10;99.90
4647;DHT22;2336;47.822;7.564;2023-08-12T09:03:50;23.20;99.90
4647;DHT22;2336;47.822;7.564;2023-08-12T09:06:20;23.20;99.90
4647;DHT22;2336;47.822;7.564;2023-08-12T09:08:49;23.20;99.90
4647;DHT22;2336;47.822;7.564;2023-08-12T09:11:18;23.20;99.90
4647;DHT22;2336;47.822;7.564;2023-08-12T09:13:45;23.20;99.90
4647;DHT22;2336;47.822;7.564;2023-08-12T09:16:12;23.30;99.90
4647;DHT22;2336;47.822;7.564;2023-08-12T09:18:40;23.30;99.90
4647;DHT22;2336;47.822;7.564;2023-08-12T09:21:08;23.40;99.90
4647;DHT22;2336;47.822;7.564;2023-08-12T09:23:37;23.30;99.90
4647;DHT22;2336;47.822;7.564;2023-08-12T09:26:13;23.40;99.90
4647;DHT22;2336;47.822;7.564;2023-08-12T09:28:40;23.40;99.90
4647;DHT22;2336;47.822;7.564;2023-08-12T09:31:07;23.50;99.90
4647;DHT22;2336;47.822;7.564;2023-08-12T09:33:38;23.60;99.90
4647;DHT22;2336;47.822;7.564;2023-08-12T09:36:05;23.80;99.90
4647;DHT22;2336;47.822;7.564;2023-08-12T09:38:32;23.90;99.90
4647;DHT22;2336;47.822;7.564;2023-08-12T09:41:01;24.10;99.90
4647;DHT22;2336;47.822;7.564;2023-08-12T09:43:28;24.30;99.90
4647;DHT22;2336;47.822;7.564;2023-08-12T09:45:56;24.40;99.90
4647;DHT22;2336;47.822;7.564;2023-08-12T09:48:23;24.50;99.90
4647;DHT22;2336;47.822;7.564;2023-08-12T09:50:50;24.60;99.90
4647;DHT22;2336;47.822;7.564;2023-08-12T09:53:16;24.80;99.90
4647;DHT22;2336;47.822;7.564;2023-08-12T09:55:43;24.70;99.90
4647;DHT22;2336;47.822;7.564;2023-08-12T09:58:15;24.90;99.90
4647;DHT22;2336;47.822;7.564;2023-08-12T10:00:44;25.10;99.90
4647;DHT22;2336;47.822;7.564;2023-08-12T10:03:11;25.00;99.90
4647;DHT22;2336;47.822;7.564;2023-08-12T10:05:40;25.30;99.90
4647;DHT22;2336;47.822;7.564;2023-08-12T10:08:07;25.70;99.90
4647;DHT22;2336;47.822;7.564;2023-08-12T10:10:35;25.80;99.90
4647;DHT22;2336;47.822;7.564;2023-08-12T10:13:02;25.90;99.90
4647;DHT22;2336;47.822;7.564;2023-08-12T10:15:34;26.00;99.90
4647;DHT22;2336;47.822;7.564;2023-08-12T10:18:01;26.30;99.90
4647;DHT22;2336;47.822;7.564;2023-08-12T10:20:29;26.70;99.90
4647;DHT22;2336;47.822;7.564;2023-08-12T10:22:59;26.90;99.90
4647;DHT22;2336;47.822;7.564;2023-08-12T10:25:31;27.10;99.90
4647;DHT22;2336;47.822;7.564;2023-08-12T10:27:59;27.30;99.90
4647;DHT22;2336;47.822;7.564;2023-08-12T10:30:28;27.40;99.90
4647;DHT22;2336;47.822;7.564;2023-08-12T10:32:58;27.40;99.90
4647;DHT22;2336;47.822;7.564;2023-08-12T10:35:43;27.70;99.90
4647;DHT22;2336;47.822;7.564;2023-08-12T10:38:13;27.90;99.90
4647;DHT22;2336;47.822;7.564;2023-08-12T10:40:40;27.90;99.90
4647;DHT22;2336;47.822;7.564;2023-08-12T10:43:07;27.80;99.90
4647;DHT22;2336;47.822;7.564;2023-08-12T10:45:46;27.50;99.90
4647;DHT22;2336;47.822;7.564;2023-08-12T10:48:22;27.40;99.90
4647;DHT22;2336;47.822;7.564;2023-08-12T10:50:54;27.30;99.90
4647;DHT22;2336;47.822;7.564;2023-08-12T10:53:25;27.10;99.90
4647;DHT22;2336;47.822;7.564;2023-08-12T10:55:56;26.70;99.90
4647;DHT22;2336;47.822;7.564;2023-08-12T10:58:27;26.30;99.90
4647;DHT22;2336;47.822;7.564;2023-08-12T11:00:55;26.10;99.90
4647;DHT22;2336;47.822;7.564;2023-08-12T11:03:24;25.90;99.90
4647;DHT22;2336;47.822;7.564;2023-08-12T11:05:50;25.80;99.90
4647;DHT22;2336;47.822;7.564;2023-08-12T11:08:25;25.80;99.90
4647;DHT22;2336;47.822;7.564;2023-08-12T11:10:55;25.60;99.90
4647;DHT22;2336;47.822;7.564;2023-08-12T11:13:22;25.30;99.90
4647;DHT22;2336;47.822;7.564;2023-08-12T11:15:50;25.30;99.90
4647;DHT22;2336;47.822;7.564;2023-08-12T11:18:18;25.30;99.90
4647;DHT22;2336;47.822;7.564;2023-08-12T11:20:48;25.30;99.90
4647;DHT22;2336;47.822;7.564;2023-08-12T11:23:16;25.40;99.90
4647;DHT22;2336;47.822;7.564;2023-08-12T11:25:43;25.60;99.90
4647;DHT22;2336;47.822;7.564;2023-08-12T11:28:11;26.00;99.90
4647;DHT22;2336;47.822;7.564;2023-08-12T11:30:41;26.30;99.90
4647;DHT22;2336;47.822;7.564;2023-08-12T11:33:09;26.50;99.90
4647;DHT22;2336;47.822;7.564;2023-08-12T11:35:36;26.70;99.90
4647;DHT22;2336;47.822;7.564;2023-08-12T11:38:05;26.90;99.90
4647;DHT22;2336;47.822;7.564;2023-08-12T11:40:33;27.30;99.90
4647;DHT22;2336;47.822;7.564;2023-08-12T11:43:01;27.40;99.90
4647;DHT22;2336;47.822;7.564;2023-08-12T11:45:28;27.70;99.90
4647;DHT22;2336;47.822;7.564;2023-08-12T11:47:55;28.10;99.90
4647;DHT22;2336;47.822;7.564;2023-08-12T11:50:23;28.50;99.90
4647;DHT22;2336;47.822;7.564;2023-08-12T11:52:50;28.40;99.90
4647;DHT22;2336;47.822;7.564;2023-08-12T11:55:19;28.30;99.90
4647;DHT22;2336;47.822;7.564;2023-08-12T11:57:46;28.50;99.90
4647;DHT22;2336;47.822;7.564;2023-08-12T12:00:13;28.50;99.90
4647;DHT22;2336;47.822;7.564;2023-08-12T12:02:45;28.50;99.90
4647;DHT22;2336;47.822;7.564;2023-08-12T12:05:12;28.70;99.90
4647;DHT22;2336;47.822;7.564;2023-08-12T12:07:40;28.50;99.90
4647;DHT22;2336;47.822;7.564;2023-08-12T12:10:08;28.50;99.90
4647;DHT22;2336;47.822;7.564;2023-08-12T12:12:36;28.50;99.90
4647;DHT22;2336;47.822;7.564;2023-08-12T12:15:04;28.50;99.90
4647;DHT22;2336;47.822;7.564;2023-08-12T12:17:31;28.40;99.90
4647;DHT22;2336;47.822;7.564;2023-08-12T12:19:59;28.50;99.90
4647;DHT22;2336;47.822;7.564;2023-08-12T12:22:27;28.90;99.90
4647;DHT22;2336;47.822;7.564;2023-08-12T12:24:58;29.10;99.90
4647;DHT22;2336;47.822;7.564;2023-08-12T12:27:25;29.20;99.90
4647;DHT22;2336;47.822;7.564;2023-08-12T12:29:53;29.10;99.90
4647;DHT22;2336;47.822;7.564;2023-08-12T12:32:20;29.20;99.90
4647;DHT22;2336;47.822;7.564;2023-08-12T12:34:47;29.10;99.90
4647;DHT22;2336;47.822;7.564;2023-08-12T12:37:14;29.20;99.90
4647;DHT22;2336;47.822;7.564;2023-08-12T12:39:41;29.40;99.90
4647;DHT22;2336;47.822;7.564;2023-08-12T12:42:07;29.60;99.90
4647;DHT22;2336;47.822;7.564;2023-08-12T12:44:34;29.60;99.90
4647;DHT22;2336;47.822;7.564;2023-08-12T12:47:02;29.80;99.90
4647;DHT22;2336;47.822;7.564;2023-08-12T12:49:29;30.00;99.90
4647;DHT22;2336;47.822;7.564;2023-08-12T12:51:56;30.10;99.90
4647;DHT22;2336;47.822;7.564;2023-08-12T12:54:23;30.00;99.90
4647;DHT22;2336;47.822;7.564;2023-08-12T12:56:49;30.10;99.90
4647;DHT22;2336;47.822;7.564;2023-08-12T12:59:16;30.10;99.90
4647;DHT22;2336;47.822;7.564;2023-08-12T13:01:43;30.10;99.90
4647;DHT22;2336;47.822;7.564;2023-08-12T13:04:11;30.00;99.90
4647;DHT22;2336;47.822;7.564;2023-08-12T13:06:38;29.70;99.90
4647;DHT22;2336;47.822;7.564;2023-08-12T13:09:05;29.80;99.90
4647;DHT22;2336;47.822;7.564;2023-08-12T13:11:33;29.80;99.90
4647;DHT22;2336;47.822;7.564;2023-08-12T13:14:01;29.90;99.90
4647;DHT22;2336;47.822;7.564;2023-08-12T13:16:27;29.80;99.90
4647;DHT22;2336;47.822;7.564;2023-08-12T13:18:54;29.90;99.90
4647;DHT22;2336;47.822;7.564;2023-08-12T13:21:22;29.80;99.90
4647;DHT22;2336;47.822;7.564;2023-08-12T13:23:49;29.90;99.90
4647;DHT22;2336;47.822;7.564;2023-08-12T13:26:15;30.10;99.90
4647;DHT22;2336;47.822;7.564;2023-08-12T13:28:43;30.20;99.90
4647;DHT22;2336;47.822;7.564;2023-08-12T13:31:09;30.00;99.90
4647;DHT22;2336;47.822;7.564;2023-08-12T13:33:36;30.00;99.90
4647;DHT22;2336;47.822;7.564;2023-08-12T13:36:03;30.10;99.90
4647;DHT22;2336;47.822;7.564;2023-08-12T13:38:31;30.00;99.90
4647;DHT22;2336;47.822;7.564;2023-08-12T13:40:58;29.70;99.90
4647;DHT22;2336;47.822;7.564;2023-08-12T13:43:25;29.80;99.90
4647;DHT22;2336;47.822;7.564;2023-08-12T13:45:51;30.00;99.90
4647;DHT22;2336;47.822;7.564;2023-08-12T13:48:18;30.10;99.90
4647;DHT22;2336;47.822;7.564;2023-08-12T13:50:45;30.10;99.90
4647;DHT22;2336;47.822;7.564;2023-08-12T13:53:14;30.10;99.90
4647;DHT22;2336;47.822;7.564;2023-08-12T13:55:42;30.10;99.90
4647;DHT22;2336;47.822;7.564;2023-08-12T13:58:09;30.10;99.90
4647;DHT22;2336;47.822;7.564;2023-08-12T14:00:36;30.20;99.90
4647;DHT22;2336;47.822;7.564;2023-08-12T14:03:03;30.30;99.90
4647;DHT22;2336;47.822;7.564;2023-08-12T14:05:30;30.40;99.90
4647;DHT22;2336;47.822;7.564;2023-08-12T14:07:57;30.50;99.90
4647;DHT22;2336;47.822;7.564;2023-08-12T14:10:24;30.40;99.90
4647;DHT22;2336;47.822;7.564;2023-08-12T14:12:52;30.40;99.90
4647;DHT22;2336;47.822;7.564;2023-08-12T14:15:19;30.10;99.90
4647;DHT22;2336;47.822;7.564;2023-08-12T14:17:46;30.10;99.90
4647;DHT22;2336;47.822;7.564;2023-08-12T14:20:12;29.80;99.90
4647;DHT22;2336;47.822;7.564;2023-08-12T14:22:41;29.70;99.90
4647;DHT22;2336;47.822;7.564;2023-08-12T14:25:09;29.70;99.90
4647;DHT22;2336;47.822;7.564;2023-08-12T14:27:36;29.60;99.90
4647;DHT22;2336;47.822;7.564;2023-08-12T14:30:05;29.50;99.90
4647;DHT22;2336;47.822;7.564;2023-08-12T14:32:32;29.50;99.90
4647;DHT22;2336;47.822;7.564;2023-08-12T14:34:59;29.50;99.90
4647;DHT22;2336;47.822;7.564;2023-08-12T14:37:26;29.50;99.90
4647;DHT22;2336;47.822;7.564;2023-08-12T14:39:53;29.50;99.90
4647;DHT22;2336;47.822;7.564;2023-08-12T14:42:20;29.60;99.90
4647;DHT22;2336;47.822;7.564;2023-08-12T14:44:47;29.60;99.90
4647;DHT22;2336;47.822;7.564;2023-08-12T14:47:15;29.60;99.90
4647;DHT22;2336;47.822;7.564;2023-08-12T14:49:42;29.40;99.90
4647;DHT22;2336;47.822;7.564;2023-08-12T14:52:15;29.40;99.90
4647;DHT22;2336;47.822;7.564;2023-08-12T14:54:42;29.40;99.90
4647;DHT22;2336;47.822;7.564;2023-08-12T14:57:09;29.40;99.90
4647;DHT22;2336;47.822;7.564;2023-08-12T14:59:35;29.50;99.90
4647;DHT22;2336;47.822;7.564;2023-08-12T15:02:03;29.50;99.90
4647;DHT22;2336;47.822;7.564;2023-08-12T15:04:32;29.40;99.90
4647;DHT22;2336;47.822;7.564;2023-08-12T15:06:58;29.20;99.90
4647;DHT22;2336;47.822;7.564;2023-08-12T15:09:25;29.20;99.90
4647;DHT22;2336;47.822;7.564;2023-08-12T15:11:52;29.20;99.90
4647;DHT22;2336;47.822;7.564;2023-08-12T15:14:18;29.40;99.90
4647;DHT22;2336;47.822;7.564;2023-08-12T15:16:45;29.50;99.90
4647;DHT22;2336;47.822;7.564;2023-08-12T15:19:12;29.40;99.90
4647;DHT22;2336;47.822;7.564;2023-08-12T15:21:40;29.50;99.60
4647;DHT22;2336;47.822;7.564;2023-08-12T15:24:07;29.60;99.90
4647;DHT22;2336;47.822;7.564;2023-08-12T15:26:33;29.50;99.70
4647;DHT22;2336;47.822;7.564;2023-08-12T15:29:00;29.50;99.70
4647;DHT22;2336;47.822;7.564;2023-08-12T15:31:27;29.40;97.40
4647;DHT22;2336;47.822;7.564;2023-08-12T15:33:54;29.40;97.50
4647;DHT22;2336;47.822;7.564;2023-08-12T15:36:21;29.40;97.90
4647;DHT22;2336;47.822;7.564;2023-08-12T15:38:49;29.50;97.80
4647;DHT22;2336;47.822;7.564;2023-08-12T15:41:16;29.50;97.90
4647;DHT22;2336;47.822;7.564;2023-08-12T15:43:43;29.50;98.00
4647;DHT22;2336;47.822;7.564;2023-08-12T15:46:10;29.60;97.90
4647;DHT22;2336;47.822;7.564;2023-08-12T15:48:37;29.70;97.80
4647;DHT22;2336;47.822;7.564;2023-08-12T15:51:04;29.70;97.40
4647;DHT22;2336;47.822;7.564;2023-08-12T15:53:31;29.80;96.90
4647;DHT22;2336;47.822;7.564;2023-08-12T15:55:59;29.60;96.30
4647;DHT22;2336;47.822;7.564;2023-08-12T15:58:25;29.50;96.50
4647;DHT22;2336;47.822;7.564;2023-08-12T16:00:52;29.40;96.50
4647;DHT22;2336;47.822;7.564;2023-08-12T16:03:19;29.40;96.90